Time;durP1;ratioP1;P1;durP2;ratioP2;P2;SDS_P1;SDS_P2;PMS_P1;PMS_P2;Temp;Humidity;BMP_temperature;BMP_pressure;BME280_temperature;BME280_humidity;BME280_pressure;Samples;Min_cycle;Max_cycle;Signal;HPM_P1;HPM_P2
2023/05/25 00:00:55;;;;;;;11.23;4.75;;;;;;;;;;4995092;28;20025;-71
2023/05/25 00:03:41;;;;;;;9.50;3.50;;;;;;;;;;4996204;28;20386;-70
2023/05/25 00:06:26;;;;;;;11.02;3.33;;;;;;;;;;4995809;28;20026;-70
2023/05/25 00:09:11;;;;;;;7.80;2.35;;;;;;;;;;4995382;28;20029;-70
2023/05/25 00:11:58;;;;;;;7.60;2.55;;;;;;;;;;4995340;28;20049;-69
2023/05/25 00:14:43;;;;;;;7.63;2.83;;;;;;;;;;4995479;28;20022;-66
2023/05/25 00:17:30;;;;;;;8.02;2.88;;;;;;;;;;5008903;28;20033;-74
2023/05/25 00:20:16;;;;;;;12.30;3.25;;;;;;;;;;4989513;28;20133;-74
2023/05/25 00:23:02;;;;;;;6.70;2.78;;;;;;;;;;4989095;28;20485;-74
2023/05/25 00:25:47;;;;;;;11.95;4.28;;;;;;;;;;5003047;28;20413;-73
2023/05/25 00:28:32;;;;;;;9.45;3.30;;;;;;;;;;4988716;28;20098;-75
2023/05/25 00:31:17;;;;;;;8.43;4.22;;;;;;;;;;5002968;28;20504;-75
2023/05/25 00:34:03;;;;;;;9.60;3.08;;;;;;;;;;4989019;28;20022;-68
2023/05/25 00:36:48;;;;;;;7.25;2.75;;;;;;;;;;4975866;28;20026;-65
2023/05/25 00:39:33;;;;;;;7.97;4.45;;;;;;;;;;4981391;28;20022;-66
2023/05/25 00:42:19;;;;;;;7.82;3.08;;;;;;;;;;4988612;28;20494;-66
2023/05/25 00:45:04;;;;;;;6.10;2.45;;;;;;;;;;4988474;28;20046;-66
2023/05/25 00:47:50;;;;;;;5.85;3.15;;;;;;;;;;4988728;28;20034;-68
2023/05/25 00:50:36;;;;;;;7.55;2.67;;;;;;;;;;4988569;28;20461;-68
2023/05/25 00:53:22;;;;;;;8.73;2.63;;;;;;;;;;4989170;28;20034;-67
2023/05/25 00:56:16;;;;;;;6.53;2.70;;;;;;;;;;4988633;28;20508;-71
2023/05/25 00:59:02;;;;;;;7.65;2.67;;;;;;;;;;4989000;28;20687;-72
2023/05/25 01:01:48;;;;;;;7.07;2.47;;;;;;;;;;4988535;28;20548;-73
2023/05/25 01:04:35;;;;;;;7.10;2.72;;;;;;;;;;4989107;28;20081;-72
2023/05/25 01:07:22;;;;;;;6.68;3.03;;;;;;;;;;4988965;28;20014;-73
2023/05/25 01:10:08;;;;;;;8.93;3.17;;;;;;;;;;4988788;28;20026;-67
2023/05/25 01:12:54;;;;;;;7.10;2.55;;;;;;;;;;5002151;28;20081;-73
2023/05/25 01:15:39;;;;;;;4.13;2.40;;;;;;;;;;4988446;28;20026;-73
2023/05/25 01:18:25;;;;;;;9.73;2.80;;;;;;;;;;4990485;28;20516;-72
2023/05/25 01:21:13;;;;;;;10.05;3.30;;;;;;;;;;4994090;28;20034;-72
2023/05/25 01:24:02;;;;;;;9.25;3.30;;;;;;;;;;4993826;28;20037;-71
2023/05/25 01:26:53;;;;;;;6.00;2.40;;;;;;;;;;4982056;28;20029;-72
2023/05/25 01:29:40;;;;;;;8.15;3.30;;;;;;;;;;4993896;28;20125;-71
2023/05/25 01:32:26;;;;;;;8.57;3.45;;;;;;;;;;4993822;28;20053;-72
2023/05/25 01:35:12;;;;;;;7.68;3.15;;;;;;;;;;4994367;28;20022;-73
2023/05/25 01:37:57;;;;;;;5.18;2.88;;;;;;;;;;4994389;28;20478;-72
2023/05/25 01:40:44;;;;;;;15.75;3.63;;;;;;;;;;4982962;28;20682;-72
2023/05/25 01:43:29;;;;;;;10.75;3.40;;;;;;;;;;4994547;28;20062;-73
2023/05/25 01:46:20;;;;;;;14.10;4.95;;;;;;;;;;4994541;28;20014;-70
2023/05/25 01:49:18;;;;;;;8.38;2.60;;;;;;;;;;4990583;28;20042;-68
2023/05/25 01:52:03;;;;;;;5.85;2.72;;;;;;;;;;4993556;28;20068;-71
2023/05/25 01:54:53;;;;;;;7.85;3.55;;;;;;;;;;4994534;28;20018;-72
2023/05/25 01:57:41;;;;;;;8.18;3.30;;;;;;;;;;4981147;28;20021;-71
2023/05/25 02:00:30;;;;;;;11.20;2.90;;;;;;;;;;4981290;28;20133;-71
2023/05/25 02:03:16;;;;;;;6.57;2.53;;;;;;;;;;4994666;28;20033;-71
2023/05/25 02:06:01;;;;;;;7.10;2.78;;;;;;;;;;4993557;28;20308;-68
2023/05/25 02:08:46;;;;;;;9.95;2.90;;;;;;;;;;5007652;28;20021;-71
2023/05/25 02:11:31;;;;;;;10.10;3.13;;;;;;;;;;5007836;28;20030;-71
2023/05/25 02:14:17;;;;;;;8.70;2.70;;;;;;;;;;4994036;28;20788;-70
2023/05/25 02:17:02;;;;;;;5.50;2.95;;;;;;;;;;4993981;28;20034;-70
2023/05/25 02:19:51;;;;;;;10.55;3.50;;;;;;;;;;4994031;28;20072;-70
2023/05/25 02:22:37;;;;;;;8.98;3.10;;;;;;;;;;4994131;28;20030;-69
2023/05/25 02:25:22;;;;;;;7.38;2.70;;;;;;;;;;4993881;28;20061;-69
2023/05/25 02:28:07;;;;;;;10.57;4.10;;;;;;;;;;4989053;28;20733;-69
2023/05/25 02:30:52;;;;;;;8.90;3.03;;;;;;;;;;4981860;28;20018;-72
2023/05/25 02:33:37;;;;;;;13.75;3.42;;;;;;;;;;4984018;28;20041;-71
2023/05/25 02:36:23;;;;;;;7.85;3.00;;;;;;;;;;4997436;28;20037;-70
2023/05/25 02:39:08;;;;;;;10.65;2.97;;;;;;;;;;5010915;28;20074;-69
2023/05/25 02:41:53;;;;;;;8.95;3.05;;;;;;;;;;4997462;28;20026;-75
2023/05/25 02:44:39;;;;;;;8.00;3.00;;;;;;;;;;5010735;28;20092;-68
2023/05/25 02:47:24;;;;;;;11.13;3.88;;;;;;;;;;4997392;28;20036;-69
2023/05/25 02:50:10;;;;;;;12.13;3.65;;;;;;;;;;4997021;28;20030;-69
2023/05/25 02:52:55;;;;;;;7.38;2.72;;;;;;;;;;5010811;28;20121;-69
2023/05/25 02:55:42;;;;;;;9.70;3.63;;;;;;;;;;5006055;28;20033;-69
2023/05/25 02:58:27;;;;;;;7.43;2.80;;;;;;;;;;4997092;28;20029;-70
2023/05/25 03:01:17;;;;;;;8.63;3.00;;;;;;;;;;4996616;28;20105;-72
2023/05/25 03:04:02;;;;;;;;;;;;;;;;;;4997012;28;20524;-71
2023/05/25 03:06:47;;;;;;;6.95;3.70;;;;;;;;;;4996497;28;20399;-70
2023/05/25 03:09:32;;;;;;;8.25;3.50;;;;;;;;;;4997039;28;20025;-71
2023/05/25 03:12:17;;;;;;;12.43;4.32;;;;;;;;;;4984961;28;20037;-69
2023/05/25 03:15:03;;;;;;;12.55;3.50;;;;;;;;;;4996430;28;20040;-70
2023/05/25 03:17:49;;;;;;;7.15;3.22;;;;;;;;;;4996685;28;20388;-70
2023/05/25 03:20:34;;;;;;;9.63;3.30;;;;;;;;;;4983002;28;20222;-69
2023/05/25 03:23:19;;;;;;;11.77;4.53;;;;;;;;;;5010016;28;20128;-70
2023/05/25 03:26:05;;;;;;;9.40;3.13;;;;;;;;;;5010306;28;20033;-71
2023/05/25 03:28:53;;;;;;;10.68;3.50;;;;;;;;;;4996784;28;20022;-70
2023/05/25 03:31:38;;;;;;;7.85;3.55;;;;;;;;;;4996655;28;20075;-69
2023/05/25 03:34:25;;;;;;;11.05;3.90;;;;;;;;;;5010048;28;20029;-71
2023/05/25 03:37:10;;;;;;;10.20;3.75;;;;;;;;;;4982952;28;20033;-67
2023/05/25 03:39:55;;;;;;;7.75;3.30;;;;;;;;;;4976586;28;20018;-76
2023/05/25 03:42:41;;;;;;;9.55;3.65;;;;;;;;;;4995666;28;20424;-75
2023/05/25 03:45:26;;;;;;;8.80;3.10;;;;;;;;;;4994044;28;20293;-76
2023/05/25 03:48:11;;;;;;;9.38;4.25;;;;;;;;;;4995026;28;20028;-76
2023/05/25 03:50:56;;;;;;;5.72;3.40;;;;;;;;;;4994246;28;20014;-76
2023/05/25 03:53:41;;;;;;;10.05;3.60;;;;;;;;;;5008694;28;20080;-75
2023/05/25 03:56:27;;;;;;;10.05;3.60;;;;;;;;;;4996108;28;20389;-69
2023/05/25 03:59:12;;;;;;;6.55;3.03;;;;;;;;;;4995918;28;20065;-76
2023/05/25 04:01:57;;;;;;;10.32;3.47;;;;;;;;;;4993897;28;20029;-74
2023/05/25 04:04:42;;;;;;;9.82;3.40;;;;;;;;;;4989303;28;20049;-77
2023/05/25 04:07:29;;;;;;;8.10;4.07;;;;;;;;;;5007822;28;20053;-78
2023/05/25 04:10:15;;;;;;;7.95;4.07;;;;;;;;;;4993980;28;20145;-76
2023/05/25 04:13:00;;;;;;;9.10;4.18;;;;;;;;;;4994312;28;20052;-75
2023/05/25 04:15:45;;;;;;;6.45;3.33;;;;;;;;;;5008736;28;20033;-68
2023/05/25 04:18:30;;;;;;;12.90;4.97;;;;;;;;;;4995368;28;20042;-69
2023/05/25 04:21:16;;;;;;;8.07;4.03;;;;;;;;;;5009449;28;20037;-70
2023/05/25 04:24:01;;;;;;;9.77;3.58;;;;;;;;;;5009138;28;20145;-71
2023/05/25 04:26:47;;;;;;;13.02;4.50;;;;;;;;;;4990654;28;20018;-69
2023/05/25 04:29:32;;;;;;;15.65;4.05;;;;;;;;;;4995770;28;20033;-69
2023/05/25 04:32:17;;;;;;;15.02;4.43;;;;;;;;;;4995043;28;20120;-73
2023/05/25 04:35:04;;;;;;;10.63;3.75;;;;;;;;;;4995565;28;20040;-77
2023/05/25 04:37:50;;;;;;;10.07;3.55;;;;;;;;;;4995455;28;20041;-78
2023/05/25 04:40:35;;;;;;;14.00;4.45;;;;;;;;;;4994207;28;20123;-76
2023/05/25 04:43:20;;;;;;;7.93;3.70;;;;;;;;;;4985842;28;20087;-76
2023/05/25 04:46:06;;;;;;;12.18;4.28;;;;;;;;;;4994389;28;20024;-76
2023/05/25 04:48:52;;;;;;;11.13;4.70;;;;;;;;;;5008388;28;20034;-77
2023/05/25 04:51:37;;;;;;;11.98;4.40;;;;;;;;;;4970421;28;20102;-68
2023/05/25 04:54:22;;;;;;;14.02;5.22;;;;;;;;;;4993607;28;20026;-69
2023/05/25 04:57:07;;;;;;;9.30;4.05;;;;;;;;;;4994806;28;20322;-68
2023/05/25 04:59:53;;;;;;;10.32;4.40;;;;;;;;;;4990851;28;20041;-72
2023/05/25 05:02:38;;;;;;;15.25;5.45;;;;;;;;;;4986536;28;20595;-70
2023/05/25 05:05:23;;;;;;;9.68;4.25;;;;;;;;;;4994750;28;20033;-69
2023/05/25 05:08:12;;;;;;;11.52;4.63;;;;;;;;;;5008381;28;20022;-69
2023/05/25 05:10:57;;;;;;;16.70;5.13;;;;;;;;;;4995048;28;20143;-71
2023/05/25 05:13:42;;;;;;;9.80;4.10;;;;;;;;;;4994426;28;20374;-71
2023/05/25 05:16:32;;;;;;;8.88;3.47;;;;;;;;;;4994302;28;20028;-70
2023/05/25 05:19:17;;;;;;;;;;;;;;;;;;4995066;28;20049;-70
2023/05/25 05:22:02;;;;;;;11.63;4.80;;;;;;;;;;4994337;28;19910;-70
2023/05/25 05:24:48;;;;;;;14.43;5.03;;;;;;;;;;5007905;28;20488;-69
2023/05/25 05:27:33;;;;;;;10.43;4.40;;;;;;;;;;4987230;28;20018;-67
2023/05/25 05:30:18;;;;;;;10.98;4.95;;;;;;;;;;4994228;28;20033;-71
2023/05/25 05:33:04;;;;;;;12.95;4.70;;;;;;;;;;4992227;28;20033;-73
2023/05/25 05:35:51;;;;;;;13.77;4.82;;;;;;;;;;5005520;28;20026;-71
2023/05/25 05:38:36;;;;;;;10.85;4.03;;;;;;;;;;4992175;28;20036;-72
2023/05/25 05:41:22;;;;;;;11.00;3.72;;;;;;;;;;5005948;28;20021;-72
2023/05/25 05:44:07;;;;;;;16.92;4.63;;;;;;;;;;4991892;28;20038;-72
2023/05/25 05:46:58;;;;;;;13.77;4.28;;;;;;;;;;4992831;28;20018;-77
2023/05/25 05:49:44;;;;;;;10.82;4.35;;;;;;;;;;4993392;28;20029;-67
2023/05/25 05:52:29;;;;;;;11.70;4.43;;;;;;;;;;4993994;28;20473;-68
2023/05/25 05:55:14;;;;;;;8.70;4.15;;;;;;;;;;4980831;28;20025;-69
2023/05/25 05:57:59;;;;;;;11.55;4.57;;;;;;;;;;4994310;28;20041;-69
2023/05/25 06:00:45;;;;;;;10.27;4.20;;;;;;;;;;4994235;28;20033;-69
2023/05/25 06:03:30;;;;;;;14.63;5.20;;;;;;;;;;4994381;28;20148;-69
2023/05/25 06:06:15;;;;;;;11.82;4.22;;;;;;;;;;4995593;28;20030;-72
2023/05/25 06:09:02;;;;;;;12.93;4.93;;;;;;;;;;4997983;28;20014;-73
2023/05/25 06:11:47;;;;;;;18.30;4.65;;;;;;;;;;4997577;28;20282;-71
2023/05/25 06:14:32;;;;;;;15.32;4.55;;;;;;;;;;4997905;28;20033;-72
2023/05/25 06:17:18;;;;;;;10.98;4.78;;;;;;;;;;4998190;28;20397;-72
2023/05/25 06:20:03;;;;;;;14.00;5.40;;;;;;;;;;4996198;28;20089;-72
2023/05/25 06:22:48;;;;;;;13.50;4.65;;;;;;;;;;4995689;28;20684;-67
2023/05/25 06:25:34;;;;;;;14.00;6.07;;;;;;;;;;4995300;28;20026;-78
2023/05/25 06:28:19;;;;;;;15.15;5.15;;;;;;;;;;4989994;28;20041;-78
2023/05/25 06:31:05;;;;;;;13.63;4.90;;;;;;;;;;4982048;28;20045;-78
2023/05/25 06:33:50;;;;;;;11.98;4.70;;;;;;;;;;4995134;28;20140;-75
2023/05/25 06:36:36;;;;;;;12.82;4.70;;;;;;;;;;5009477;28;20030;-76
2023/05/25 06:39:21;;;;;;;13.88;5.07;;;;;;;;;;4995509;28;20017;-78
2023/05/25 06:42:06;;;;;;;14.32;5.43;;;;;;;;;;4994754;28;20037;-78
2023/05/25 06:44:51;;;;;;;13.10;4.60;;;;;;;;;;4996890;28;20116;-71
2023/05/25 06:47:37;;;;;;;18.00;4.32;;;;;;;;;;4995839;28;20112;-72
2023/05/25 06:50:22;;;;;;;12.63;5.18;;;;;;;;;;4996592;28;20534;-71
2023/05/25 06:53:09;;;;;;;14.55;5.00;;;;;;;;;;4997624;28;20030;-73
2023/05/25 06:55:54;;;;;;;10.13;4.47;;;;;;;;;;4996186;28;20029;-72
2023/05/25 06:58:40;;;;;;;17.02;5.60;;;;;;;;;;4994576;28;20124;-72
2023/05/25 07:01:25;;;;;;;15.15;4.95;;;;;;;;;;4996135;28;20044;-74
2023/05/25 07:04:10;;;;;;;14.25;4.60;;;;;;;;;;4997296;28;20064;-72
2023/05/25 07:06:55;;;;;;;13.45;5.25;;;;;;;;;;4996677;28;20029;-71
2023/05/25 07:09:41;;;;;;;15.13;4.70;;;;;;;;;;5008486;28;20044;-71
2023/05/25 07:12:26;;;;;;;16.75;5.50;;;;;;;;;;4995456;28;20509;-73
2023/05/25 07:15:12;;;;;;;16.65;5.53;;;;;;;;;;5010025;28;20044;-73
2023/05/25 07:17:57;;;;;;;15.60;5.63;;;;;;;;;;4995784;28;20026;-68
2023/05/25 07:20:43;;;;;;;13.02;4.72;;;;;;;;;;4996509;28;20572;-72
2023/05/25 07:23:28;;;;;;;20.10;6.18;;;;;;;;;;4996653;28;20037;-70
2023/05/25 07:26:14;;;;;;;10.23;4.60;;;;;;;;;;4978434;28;20045;-72
2023/05/25 07:28:59;;;;;;;14.43;5.50;;;;;;;;;;4996758;28;20041;-71
2023/05/25 07:31:44;;;;;;;15.25;6.20;;;;;;;;;;5010109;28;20050;-73
2023/05/25 07:34:30;;;;;;;15.32;5.45;;;;;;;;;;4996835;28;20026;-72
2023/05/25 07:37:15;;;;;;;9.77;4.85;;;;;;;;;;5010385;28;20018;-76
2023/05/25 07:40:00;;;;;;;14.75;4.88;;;;;;;;;;4996571;28;20028;-75
2023/05/25 07:42:45;;;;;;;14.35;5.60;;;;;;;;;;4995994;28;20105;-77
2023/05/25 07:45:30;;;;;;;16.08;5.68;;;;;;;;;;4996488;28;20034;-76
2023/05/25 07:48:16;;;;;;;17.50;5.93;;;;;;;;;;4996767;28;20444;-75
2023/05/25 07:51:01;;;;;;;15.25;5.68;;;;;;;;;;4996025;28;20101;-77
2023/05/25 07:53:46;;;;;;;13.23;5.07;;;;;;;;;;4996298;28;20053;-76
2023/05/25 07:56:31;;;;;;;10.82;4.70;;;;;;;;;;4995902;28;20045;-67
2023/05/25 07:59:16;;;;;;;14.02;5.75;;;;;;;;;;4993694;28;20109;-76
2023/05/25 08:02:02;;;;;;;14.20;5.85;;;;;;;;;;4994111;28;20474;-76
2023/05/25 08:04:47;;;;;;;12.43;6.18;;;;;;;;;;4994399;28;20374;-76
2023/05/25 08:07:33;;;;;;;13.10;4.80;;;;;;;;;;5008606;28;20057;-77
2023/05/25 08:10:18;;;;;;;12.38;4.85;;;;;;;;;;5009537;28;20088;-75
2023/05/25 08:13:03;;;;;;;18.23;5.82;;;;;;;;;;4995599;28;20132;-72
2023/05/25 08:15:48;;;;;;;14.40;5.45;;;;;;;;;;4971664;28;20057;-71
2023/05/25 08:18:34;;;;;;;20.77;5.63;;;;;;;;;;4995102;28;20482;-71
2023/05/25 08:21:19;;;;;;;12.45;5.65;;;;;;;;;;4995737;28;20470;-70
2023/05/25 08:24:07;;;;;;;13.63;6.65;;;;;;;;;;4995294;28;20122;-69
2023/05/25 08:26:52;;;;;;;15.13;5.57;;;;;;;;;;4981732;28;20076;-72
2023/05/25 08:29:37;;;;;;;10.07;5.47;;;;;;;;;;4995053;28;20721;-71
2023/05/25 08:32:22;;;;;;;14.18;5.97;;;;;;;;;;5009058;28;20026;-75
2023/05/25 08:35:08;;;;;;;13.60;5.53;;;;;;;;;;4995289;28;20464;-67
2023/05/25 08:37:54;;;;;;;16.98;6.18;;;;;;;;;;4995372;28;20447;-69
2023/05/25 08:40:40;;;;;;;14.93;5.72;;;;;;;;;;5008898;28;20053;-67
2023/05/25 08:43:25;;;;;;;16.35;5.47;;;;;;;;;;4995163;28;20030;-68
2023/05/25 08:46:10;;;;;;;18.85;6.35;;;;;;;;;;4995472;28;20018;-68
2023/05/25 08:49:12;;;;;;;13.73;5.93;;;;;;;;;;4994970;28;20025;-68
2023/05/25 08:51:57;;;;;;;10.88;5.43;;;;;;;;;;4995296;28;20030;-76
2023/05/25 08:54:43;;;;;;;13.88;5.45;;;;;;;;;;4995151;28;20033;-78
2023/05/25 08:57:30;;;;;;;10.73;5.28;;;;;;;;;;4994268;28;20028;-73
2023/05/25 09:00:18;;;;;;;12.98;6.47;;;;;;;;;;4994596;28;20056;-77
2023/05/25 09:03:06;;;;;;;15.05;6.30;;;;;;;;;;4980478;28;20026;-76
2023/05/25 09:05:53;;;;;;;21.58;6.40;;;;;;;;;;4994228;28;20555;-75
2023/05/25 09:08:39;;;;;;;15.65;6.32;;;;;;;;;;4994571;28;20265;-69
2023/05/25 09:11:26;;;;;;;18.92;6.75;;;;;;;;;;4993968;28;20026;-74
2023/05/25 09:14:12;;;;;;;13.70;6.47;;;;;;;;;;4994479;28;20057;-76
2023/05/25 09:16:57;;;;;;;14.23;6.93;;;;;;;;;;4994164;28;20030;-75
2023/05/25 09:19:43;;;;;;;13.00;6.03;;;;;;;;;;4994018;28;20058;-79
2023/05/25 09:22:28;;;;;;;18.20;6.15;;;;;;;;;;4994325;28;20045;-76
2023/05/25 09:25:19;;;;;;;15.23;5.75;;;;;;;;;;4993693;28;20495;-78
2023/05/25 09:28:06;;;;;;;11.77;5.57;;;;;;;;;;4992296;28;20234;-78
2023/05/25 09:30:52;;;;;;;12.48;5.22;;;;;;;;;;4994558;28;20025;-75
2023/05/25 09:33:37;;;;;;;17.55;7.18;;;;;;;;;;4994525;28;20231;-74
2023/05/25 09:36:23;;;;;;;14.40;6.28;;;;;;;;;;4992681;28;20026;-72
2023/05/25 09:39:09;;;;;;;12.95;5.82;;;;;;;;;;5006163;28;20026;-73
2023/05/25 09:41:55;;;;;;;13.55;5.90;;;;;;;;;;4991718;28;20485;-74
2023/05/25 09:44:41;;;;;;;14.25;5.68;;;;;;;;;;4984511;28;20131;-70
2023/05/25 09:47:26;;;;;;;11.13;5.68;;;;;;;;;;5007872;28;20017;-70
2023/05/25 09:50:12;;;;;;;16.63;6.13;;;;;;;;;;4993632;28;20018;-70
2023/05/25 09:52:58;;;;;;;12.68;5.45;;;;;;;;;;4981210;28;20018;-69
2023/05/25 09:55:47;;;;;;;14.70;6.68;;;;;;;;;;4994236;28;20033;-69
2023/05/25 09:58:32;;;;;;;13.68;5.25;;;;;;;;;;4993991;28;20071;-68
2023/05/25 10:01:18;;;;;;;16.83;6.13;;;;;;;;;;5007663;28;20026;-69
2023/05/25 10:04:03;;;;;;;12.85;5.78;;;;;;;;;;5007559;28;20500;-75
2023/05/25 10:06:50;;;;;;;13.77;5.63;;;;;;;;;;4994043;28;20006;-70
2023/05/25 10:09:39;;;;;;;13.30;5.70;;;;;;;;;;4994265;28;20306;-71
2023/05/25 10:12:25;;;;;;;15.38;5.93;;;;;;;;;;4994124;28;20030;-71
2023/05/25 10:15:11;;;;;;;12.43;5.93;;;;;;;;;;4994132;28;20342;-71
2023/05/25 10:17:57;;;;;;;9.05;4.72;;;;;;;;;;4993843;28;20026;-70
2023/05/25 10:20:45;;;;;;;15.30;6.97;;;;;;;;;;4993942;28;20053;-71
2023/05/25 10:23:34;;;;;;;16.13;6.95;;;;;;;;;;4993650;28;20037;-73
2023/05/25 10:26:21;;;;;;;14.65;4.97;;;;;;;;;;4983676;28;20461;-77
2023/05/25 10:29:07;;;;;;;11.98;5.00;;;;;;;;;;4966823;28;20583;-78
2023/05/25 10:31:53;;;;;;;11.80;5.97;;;;;;;;;;4993282;28;20374;-79
2023/05/25 10:34:39;;;;;;;13.95;5.88;;;;;;;;;;5006423;28;20068;-78
2023/05/25 10:37:28;;;;;;;12.05;5.43;;;;;;;;;;4992147;28;20366;-77
2023/05/25 10:40:14;;;;;;;10.73;5.95;;;;;;;;;;4993718;28;20030;-71
2023/05/25 10:42:59;;;;;;;14.85;5.72;;;;;;;;;;4992453;28;20026;-67
2023/05/25 10:45:45;;;;;;;14.25;5.72;;;;;;;;;;4980322;28;20025;-68
2023/05/25 10:48:50;;;;;;;10.25;4.90;;;;;;;;;;4993701;28;20125;-68
2023/05/25 10:51:36;;;;;;;13.18;5.50;;;;;;;;;;4994131;28;20022;-69
2023/05/25 10:54:21;;;;;;;7.78;4.38;;;;;;;;;;4997076;28;20470;-66
2023/05/25 10:57:07;;;;;;;9.48;5.45;;;;;;;;;;5011087;28;20116;-67
2023/05/25 11:00:06;;;;;;;10.20;5.30;;;;;;;;;;4996932;28;20384;-70
2023/05/25 11:02:54;;;;;;;13.32;4.78;;;;;;;;;;4997061;28;20091;-69
2023/05/25 11:05:42;;;;;;;11.45;4.85;;;;;;;;;;4997103;28;20041;-69
2023/05/25 11:08:47;;;;;;;11.88;4.63;;;;;;;;;;4983581;28;20060;-70
2023/05/25 11:11:57;;;;;;;10.98;5.20;;;;;;;;;;4996698;28;20354;-71
2023/05/25 11:14:43;;;;;;;10.88;5.28;;;;;;;;;;4997135;28;20647;-72
2023/05/25 11:17:31;;;;;;;9.13;5.38;;;;;;;;;;5010422;28;20035;-66
2023/05/25 11:20:22;;;;;;;14.30;5.47;;;;;;;;;;4996350;28;20064;-68
2023/05/25 11:23:23;;;;;;;9.25;4.75;;;;;;;;;;4996881;28;20453;-68
2023/05/25 11:26:18;;;;;;;12.25;5.18;;;;;;;;;;5009144;28;20115;-71
2023/05/25 11:29:13;;;;;;;11.55;5.20;;;;;;;;;;4982844;28;20144;-70
2023/05/25 11:31:59;;;;;;;8.30;4.63;;;;;;;;;;4996491;28;20113;-67
2023/05/25 11:34:46;;;;;;;9.32;4.90;;;;;;;;;;4987352;28;20038;-68
2023/05/25 11:37:32;;;;;;;11.35;4.60;;;;;;;;;;4996323;28;20678;-75
2023/05/25 11:40:20;;;;;;;9.68;4.75;;;;;;;;;;4996352;28;20033;-72
2023/05/25 11:43:06;;;;;;;8.20;4.40;;;;;;;;;;4996477;28;20041;-72
2023/05/25 11:45:59;;;;;;;8.90;4.82;;;;;;;;;;4996448;28;20268;-75
2023/05/25 11:48:45;;;;;;;12.23;5.28;;;;;;;;;;4996249;28;20176;-75
2023/05/25 11:51:30;;;;;;;9.68;5.10;;;;;;;;;;4996314;28;20034;-74
2023/05/25 11:54:21;;;;;;;11.85;5.35;;;;;;;;;;4996212;28;20088;-76
2023/05/25 11:57:17;;;;;;;16.90;6.28;;;;;;;;;;4995436;28;20026;-66
2023/05/25 12:00:05;;;;;;;9.95;4.78;;;;;;;;;;4996142;28;20238;-68
2023/05/25 12:02:51;;;;;;;10.80;4.60;;;;;;;;;;5008929;28;20063;-69
2023/05/25 12:05:39;;;;;;;9.88;4.65;;;;;;;;;;4996103;28;20030;-68
2023/05/25 12:08:35;;;;;;;10.02;4.93;;;;;;;;;;4996069;28;20056;-67
2023/05/25 12:11:31;;;;;;;11.95;5.40;;;;;;;;;;4996215;28;20026;-67
2023/05/25 12:14:17;;;;;;;11.23;5.65;;;;;;;;;;4995471;28;20080;-67
2023/05/25 12:17:02;;;;;;;9.52;5.18;;;;;;;;;;5008598;28;20026;-76
2023/05/25 12:19:47;;;;;;;12.82;5.35;;;;;;;;;;4989484;28;20054;-75
2023/05/25 12:22:33;;;;;;;13.25;5.07;;;;;;;;;;4989363;28;20050;-75
2023/05/25 12:25:19;;;;;;;15.63;5.90;;;;;;;;;;5002450;28;20039;-75
2023/05/25 12:28:08;;;;;;;9.65;4.75;;;;;;;;;;4986112;28;20033;-74
2023/05/25 12:30:53;;;;;;;11.35;4.53;;;;;;;;;;5002933;28;20101;-77
2023/05/25 12:33:38;;;;;;;11.48;5.20;;;;;;;;;;4988211;28;20077;-66
2023/05/25 12:36:37;;;;;;;12.25;6.05;;;;;;;;;;4988800;28;20034;-68
2023/05/25 12:39:25;;;;;;;13.80;5.47;;;;;;;;;;4989158;28;20089;-68
2023/05/25 12:42:14;;;;;;;12.05;5.10;;;;;;;;;;4989153;28;20064;-68
2023/05/25 12:45:00;;;;;;;15.05;5.68;;;;;;;;;;4989121;28;20121;-67
2023/05/25 12:47:45;;;;;;;12.40;5.40;;;;;;;;;;4989052;28;20422;-66
2023/05/25 12:50:31;;;;;;;13.18;5.20;;;;;;;;;;5002611;28;20026;-73
2023/05/25 12:53:16;;;;;;;10.93;5.07;;;;;;;;;;4988654;28;20185;-70
2023/05/25 12:56:05;;;;;;;10.88;5.68;;;;;;;;;;4988951;28;20481;-70
2023/05/25 12:58:50;;;;;;;12.48;5.45;;;;;;;;;;4984430;28;20029;-69
2023/05/25 13:01:35;;;;;;;11.55;5.00;;;;;;;;;;4988977;28;20034;-68
2023/05/25 13:04:22;;;;;;;10.65;4.95;;;;;;;;;;4988822;28;20154;-70
2023/05/25 13:07:07;;;;;;;11.32;5.55;;;;;;;;;;4988923;28;20108;-67
2023/05/25 13:09:53;;;;;;;10.43;5.40;;;;;;;;;;4988515;28;20026;-65
2023/05/25 13:12:39;;;;;;;13.65;5.45;;;;;;;;;;4987830;28;20026;-73
2023/05/25 13:15:25;;;;;;;13.25;5.95;;;;;;;;;;4987170;28;20022;-71
2023/05/25 13:18:10;;;;;;;13.95;5.80;;;;;;;;;;4973472;28;20028;-73
2023/05/25 13:20:56;;;;;;;11.48;5.28;;;;;;;;;;4993088;28;20033;-70
2023/05/25 13:23:41;;;;;;;11.55;5.00;;;;;;;;;;4994655;28;20028;-73
2023/05/25 13:26:26;;;;;;;25.48;6.03;;;;;;;;;;4990053;28;20038;-70
2023/05/25 13:29:11;;;;;;;9.88;4.97;;;;;;;;;;4991198;28;20021;-67
2023/05/25 13:31:56;;;;;;;12.85;5.65;;;;;;;;;;4994003;28;20125;-68
2023/05/25 13:34:42;;;;;;;10.30;5.13;;;;;;;;;;4994104;28;20060;-67
2023/05/25 13:37:27;;;;;;;14.32;6.22;;;;;;;;;;5007423;28;20021;-68
2023/05/25 13:40:12;;;;;;;13.98;6.20;;;;;;;;;;4994780;28;20022;-69
2023/05/25 13:42:57;;;;;;;11.88;4.97;;;;;;;;;;5008096;28;20030;-68
2023/05/25 13:45:43;;;;;;;15.25;5.90;;;;;;;;;;4993713;28;20026;-73
2023/05/25 13:48:28;;;;;;;9.93;4.93;;;;;;;;;;4993937;28;20029;-67
2023/05/25 13:51:15;;;;;;;11.70;5.22;;;;;;;;;;4993922;28;20469;-68
2023/05/25 13:54:01;;;;;;;8.90;4.72;;;;;;;;;;4994245;28;20072;-68
2023/05/25 13:56:46;;;;;;;11.50;5.10;;;;;;;;;;4994235;28;20026;-67
2023/05/25 13:59:31;;;;;;;12.73;4.82;;;;;;;;;;5007244;28;20022;-67
2023/05/25 14:02:17;;;;;;;9.63;5.22;;;;;;;;;;4994338;28;20029;-67
2023/05/25 14:05:02;;;;;;;12.80;4.82;;;;;;;;;;4992248;28;20022;-78
2023/05/25 14:07:47;;;;;;;11.50;4.85;;;;;;;;;;5007984;28;20022;-76
2023/05/25 14:10:33;;;;;;;9.75;4.93;;;;;;;;;;4994088;28;20026;-77
2023/05/25 14:13:18;;;;;;;8.85;4.35;;;;;;;;;;4993762;28;20040;-78
2023/05/25 14:16:03;;;;;;;12.15;5.05;;;;;;;;;;4993692;28;20022;-79
2023/05/25 14:18:48;;;;;;;10.50;5.40;;;;;;;;;;5006824;28;20125;-77
2023/05/25 14:21:34;;;;;;;11.35;4.82;;;;;;;;;;4992954;28;20530;-76
2023/05/25 14:24:19;;;;;;;11.85;4.80;;;;;;;;;;5007738;28;20021;-68
2023/05/25 14:27:05;;;;;;;11.95;5.00;;;;;;;;;;4993246;28;20394;-67
2023/05/25 14:29:51;;;;;;;9.32;4.72;;;;;;;;;;4990158;28;20026;-67
2023/05/25 14:32:36;;;;;;;11.88;5.07;;;;;;;;;;4997607;28;20026;-67
2023/05/25 14:35:22;;;;;;;12.30;4.72;;;;;;;;;;4997651;28;20516;-68
2023/05/25 14:38:07;;;;;;;10.18;4.45;;;;;;;;;;4998140;28;20580;-68
2023/05/25 14:40:53;;;;;;;12.57;4.90;;;;;;;;;;4996226;28;20080;-70
2023/05/25 14:43:38;;;;;;;10.13;4.68;;;;;;;;;;5010927;28;20033;-69
2023/05/25 14:46:23;;;;;;;10.55;5.95;;;;;;;;;;4986168;28;20040;-71
2023/05/25 14:49:08;;;;;;;12.63;4.93;;;;;;;;;;4996793;28;20496;-68
2023/05/25 14:51:54;;;;;;;15.02;4.65;;;;;;;;;;4997427;28;20104;-69
2023/05/25 14:54:43;;;;;;;8.50;4.28;;;;;;;;;;4997105;28;20022;-69
2023/05/25 14:57:28;;;;;;;10.35;4.43;;;;;;;;;;4996970;28;20419;-76
2023/05/25 15:00:14;;;;;;;10.23;5.40;;;;;;;;;;4983520;28;20033;-75
2023/05/25 15:02:59;;;;;;;11.52;4.63;;;;;;;;;;4996840;28;20362;-68
2023/05/25 15:05:44;;;;;;;13.95;4.38;;;;;;;;;;4997132;28;20066;-69
2023/05/25 15:08:30;;;;;;;9.45;4.75;;;;;;;;;;4996773;28;20484;-68
2023/05/25 15:11:15;;;;;;;12.32;4.70;;;;;;;;;;4996812;28;20338;-69
2023/05/25 15:14:00;;;;;;;15.13;5.30;;;;;;;;;;4996929;28;20198;-69
2023/05/25 15:16:45;;;;;;;10.13;4.90;;;;;;;;;;4996330;28;20546;-76
2023/05/25 15:19:31;;;;;;;8.57;4.55;;;;;;;;;;5001893;28;20054;-69
2023/05/25 15:22:16;;;;;;;12.68;5.22;;;;;;;;;;4996745;28;20029;-68
2023/05/25 15:25:01;;;;;;;8.82;4.10;;;;;;;;;;4996357;28;20033;-70
2023/05/25 15:27:47;;;;;;;12.38;5.10;;;;;;;;;;4982620;28;20527;-71
2023/05/25 15:30:33;;;;;;;9.35;4.35;;;;;;;;;;4996476;28;20022;-71
2023/05/25 15:33:18;;;;;;;12.43;5.25;;;;;;;;;;4996993;28;20449;-71
2023/05/25 15:36:03;;;;;;;12.43;4.88;;;;;;;;;;4996527;28;20464;-74
2023/05/25 15:38:49;;;;;;;9.95;4.22;;;;;;;;;;4995333;28;20033;-76
2023/05/25 15:41:34;;;;;;;12.45;4.97;;;;;;;;;;4997138;28;20438;-75
2023/05/25 15:44:20;;;;;;;14.13;5.38;;;;;;;;;;5009958;28;20436;-77
2023/05/25 15:47:05;;;;;;;11.88;4.50;;;;;;;;;;4996380;28;20065;-76
2023/05/25 15:49:50;;;;;;;12.10;5.20;;;;;;;;;;4996239;28;20056;-77
2023/05/25 15:52:35;;;;;;;11.18;4.25;;;;;;;;;;4996135;28;20054;-77
2023/05/25 15:55:21;;;;;;;12.88;5.53;;;;;;;;;;5009290;28;20022;-73
2023/05/25 15:58:06;;;;;;;11.13;4.82;;;;;;;;;;4995519;28;20445;-70
2023/05/25 16:00:51;;;;;;;12.88;4.75;;;;;;;;;;4996182;28;20021;-70
2023/05/25 16:03:36;;;;;;;9.60;5.43;;;;;;;;;;5009288;28;20583;-69
2023/05/25 16:06:22;;;;;;;13.32;5.25;;;;;;;;;;4996034;28;20096;-71
2023/05/25 16:09:07;;;;;;;12.57;4.80;;;;;;;;;;5009500;28;20416;-70
2023/05/25 16:11:52;;;;;;;8.65;4.22;;;;;;;;;;5009280;28;20614;-67
2023/05/25 16:14:38;;;;;;;11.77;4.70;;;;;;;;;;4976290;28;20053;-73
2023/05/25 16:17:23;;;;;;;11.02;4.85;;;;;;;;;;4997553;28;20030;-74
2023/05/25 16:20:09;;;;;;;6.43;4.25;;;;;;;;;;4995489;28;20582;-72
2023/05/25 16:22:54;;;;;;;11.00;4.88;;;;;;;;;;4995735;28;20030;-75
2023/05/25 16:25:39;;;;;;;10.68;5.10;;;;;;;;;;4995372;28;20096;-73